Hyalite Weather Station

This weather station provides temperature, wind speed, gust or max wind speed, and wind direction at 9982ft near the summit of Flanders Mountain. This data can be used with temperature and precipitation data from the Shower Falls SNOTEL site. If the data has not been updated recently you can view it directly on datagarrison.com

Elevation
9982ft
Jump to table bottom
Date Time Temperature
deg F
RH, % Wind Speed Wind Gust Wind Direction
03/08/21 10:00 26.5 54 5 19 S - 188
03/08/21 09:00 25.0 53 7 21 S - 166
03/08/21 08:00 24.9 51 13 20 SW - 205
03/08/21 07:00 24.0 56 14 20 SW - 218
03/08/21 06:00 23.9 56 12 19 SW - 218
03/08/21 05:00 22.7 57 10 17 SW - 226
03/08/21 04:00 23.1 56 11 23 SW - 225
03/08/21 03:00 21.9 59 6 13 SW - 234
03/08/21 02:00 22.5 58 16 31 SW - 240
03/08/21 01:00 21.9 61 17 26 SW - 237
03/08/21 00:00 20.6 67 18 27 SW - 236
03/07/21 23:00 20.8 66 23 33 SW - 236
03/07/21 22:00 20.3 69 24 31 SW - 234
03/07/21 21:00 20.5 68 21 30 SW - 232
03/07/21 20:00 20.9 67 23 31 SW - 233
03/07/21 19:00 21.8 63 20 32 SW - 227
03/07/21 18:00 22.9 63 14 24 SW - 230
03/07/21 17:00 24.8 53 12 28 SW - 239
03/07/21 16:00 25.5 51 11 25 W - 251
03/07/21 15:00 26.3 50 10 22 W - 248
03/07/21 14:00 28.1 54 10 20 SW - 243
03/07/21 13:00 24.6 62 14 31 SW - 240
03/07/21 12:00 22.1 63 20 35 SW - 243
03/07/21 11:00 21.4 53 24 37 SW - 241
03/07/21 10:00 20.5 50 19 33 SW - 234
03/07/21 09:00 18.0 72 14 29 SW - 230
03/07/21 08:00 16.5 78 15 31 SW - 236
03/07/21 07:00 15.3 91 15 30 SW - 240
03/07/21 06:00 16.2 94 12 24 SW - 226
03/07/21 05:00 16.7 94 11 25 SW - 226
03/07/21 04:00 17.5 89 16 26 SW - 234
03/07/21 03:00 17.2 91 13 23 SW - 233
03/07/21 02:00 17.5 93 12 22 SW - 240
03/07/21 01:00 18.2 89 15 30 SW - 246
03/07/21 00:00 17.4 93 14 22 SW - 244
03/06/21 23:00 17.1 93 10 17 SW - 240
03/06/21 22:00 18.0 93 8 15 SW - 240
03/06/21 21:00 18.7 93 8 16 SW - 239
03/06/21 20:00 20.7 93 7 18 W - 275
03/06/21 19:00 21.2 79 15 28 W - 263
03/06/21 18:00 23.3 68 24 46 W - 248
03/06/21 17:00 24.9 56 27 49 SW - 246
03/06/21 16:00 25.8 56 23 44 SW - 240
03/06/21 15:00 28.7 41 16 42 SW - 240
03/06/21 14:00 30.2 45 19 48 SW - 230
03/06/21 13:00 31.2 42 22 56 SW - 234
03/06/21 12:00 30.4 42 23 49 SW - 234
03/06/21 11:00 29.9 43 27 46 SW - 233
03/06/21 10:00 28.7 43 29 53 SW - 229
03/06/21 09:00 27.5 41 29 48 SW - 227